sensor_id;sensor_type;location;lat;lon;timestamp;P1;durP1;ratioP1;P2;durP2;ratioP2
23519;SDS011;11936;50.820;4.336;2022-11-15T00:00:26;19.63;;;14.65;;
23519;SDS011;11936;50.820;4.336;2022-11-15T00:02:52;25.50;;;14.38;;
23519;SDS011;11936;50.820;4.336;2022-11-15T00:05:18;19.60;;;14.90;;
23519;SDS011;11936;50.820;4.336;2022-11-15T00:07:44;22.75;;;15.70;;
23519;SDS011;11936;50.820;4.336;2022-11-15T00:10:09;24.35;;;16.25;;
23519;SDS011;11936;50.820;4.336;2022-11-15T00:12:36;27.73;;;15.50;;
23519;SDS011;11936;50.820;4.336;2022-11-15T00:15:02;28.85;;;15.82;;
23519;SDS011;11936;50.820;4.336;2022-11-15T00:17:28;19.38;;;15.50;;
23519;SDS011;11936;50.820;4.336;2022-11-15T00:19:53;25.10;;;15.23;;
23519;SDS011;11936;50.820;4.336;2022-11-15T00:22:19;25.60;;;15.35;;
23519;SDS011;11936;50.820;4.336;2022-11-15T00:24:44;20.27;;;16.63;;
23519;SDS011;11936;50.820;4.336;2022-11-15T00:27:10;22.13;;;16.00;;
23519;SDS011;11936;50.820;4.336;2022-11-15T00:29:36;22.63;;;15.20;;
23519;SDS011;11936;50.820;4.336;2022-11-15T00:32:03;22.42;;;15.93;;
23519;SDS011;11936;50.820;4.336;2022-11-15T00:34:29;25.73;;;16.65;;
23519;SDS011;11936;50.820;4.336;2022-11-15T00:36:55;26.80;;;15.70;;
23519;SDS011;11936;50.820;4.336;2022-11-15T00:39:20;19.92;;;15.80;;
23519;SDS011;11936;50.820;4.336;2022-11-15T00:41:46;24.80;;;17.08;;
23519;SDS011;11936;50.820;4.336;2022-11-15T00:44:11;25.55;;;16.73;;
23519;SDS011;11936;50.820;4.336;2022-11-15T00:46:37;26.05;;;16.83;;
23519;SDS011;11936;50.820;4.336;2022-11-15T00:49:02;24.27;;;17.13;;
23519;SDS011;11936;50.820;4.336;2022-11-15T00:51:28;24.75;;;17.38;;
23519;SDS011;11936;50.820;4.336;2022-11-15T00:53:55;22.23;;;16.48;;
23519;SDS011;11936;50.820;4.336;2022-11-15T00:56:20;28.70;;;18.27;;
23519;SDS011;11936;50.820;4.336;2022-11-15T00:58:46;24.85;;;17.48;;
23519;SDS011;11936;50.820;4.336;2022-11-15T01:01:12;29.55;;;18.13;;
23519;SDS011;11936;50.820;4.336;2022-11-15T01:03:39;30.08;;;18.42;;
23519;SDS011;11936;50.820;4.336;2022-11-15T01:06:06;25.45;;;19.45;;
23519;SDS011;11936;50.820;4.336;2022-11-15T01:08:33;26.75;;;17.77;;
23519;SDS011;11936;50.820;4.336;2022-11-15T01:11:06;22.92;;;17.27;;
23519;SDS011;11936;50.820;4.336;2022-11-15T01:13:34;34.85;;;18.75;;
23519;SDS011;11936;50.820;4.336;2022-11-15T01:16:12;25.95;;;17.75;;
23519;SDS011;11936;50.820;4.336;2022-11-15T01:18:39;21.33;;;17.20;;
23519;SDS011;11936;50.820;4.336;2022-11-15T01:21:09;26.48;;;18.08;;
23519;SDS011;11936;50.820;4.336;2022-11-15T01:23:37;27.58;;;18.63;;
23519;SDS011;11936;50.820;4.336;2022-11-15T01:26:04;25.75;;;17.20;;
23519;SDS011;11936;50.820;4.336;2022-11-15T01:28:32;21.88;;;17.38;;
23519;SDS011;11936;50.820;4.336;2022-11-15T01:31:00;25.02;;;16.95;;
23519;SDS011;11936;50.820;4.336;2022-11-15T01:33:27;24.85;;;17.88;;
23519;SDS011;11936;50.820;4.336;2022-11-15T01:35:53;21.40;;;17.05;;
23519;SDS011;11936;50.820;4.336;2022-11-15T01:38:19;28.17;;;16.90;;
23519;SDS011;11936;50.820;4.336;2022-11-15T01:40:45;26.50;;;18.23;;
23519;SDS011;11936;50.820;4.336;2022-11-15T01:43:20;28.50;;;17.05;;
23519;SDS011;11936;50.820;4.336;2022-11-15T01:49:00;23.45;;;15.10;;
23519;SDS011;11936;50.820;4.336;2022-11-15T01:51:30;17.63;;;15.20;;
23519;SDS011;11936;50.820;4.336;2022-11-15T01:53:59;26.97;;;15.13;;
23519;SDS011;11936;50.820;4.336;2022-11-15T01:56:30;20.30;;;14.48;;
23519;SDS011;11936;50.820;4.336;2022-11-15T01:59:00;20.05;;;14.15;;
23519;SDS011;11936;50.820;4.336;2022-11-15T02:01:30;16.58;;;12.60;;
23519;SDS011;11936;50.820;4.336;2022-11-15T02:03:58;19.60;;;13.50;;
23519;SDS011;11936;50.820;4.336;2022-11-15T02:06:27;15.80;;;13.07;;
23519;SDS011;11936;50.820;4.336;2022-11-15T02:08:52;19.90;;;14.52;;
23519;SDS011;11936;50.820;4.336;2022-11-15T02:11:19;19.10;;;14.05;;
23519;SDS011;11936;50.820;4.336;2022-11-15T02:13:45;20.30;;;13.52;;
23519;SDS011;11936;50.820;4.336;2022-11-15T02:16:28;22.63;;;13.90;;
23519;SDS011;11936;50.820;4.336;2022-11-15T02:21:29;19.95;;;14.40;;
23519;SDS011;11936;50.820;4.336;2022-11-15T02:41:40;23.77;;;13.07;;
23519;SDS011;11936;50.820;4.336;2022-11-15T02:44:22;23.85;;;13.60;;
23519;SDS011;11936;50.820;4.336;2022-11-15T02:46:58;18.05;;;13.27;;
23519;SDS011;11936;50.820;4.336;2022-11-15T02:49:40;19.25;;;12.88;;
23519;SDS011;11936;50.820;4.336;2022-11-15T02:52:08;18.05;;;12.55;;
23519;SDS011;11936;50.820;4.336;2022-11-15T02:54:34;20.98;;;12.88;;
23519;SDS011;11936;50.820;4.336;2022-11-15T02:57:02;17.33;;;13.15;;
23519;SDS011;11936;50.820;4.336;2022-11-15T02:59:36;21.13;;;12.57;;
23519;SDS011;11936;50.820;4.336;2022-11-15T03:05:18;17.80;;;10.38;;
23519;SDS011;11936;50.820;4.336;2022-11-15T03:10:40;16.13;;;10.05;;
23519;SDS011;11936;50.820;4.336;2022-11-15T03:13:20;17.80;;;10.63;;
23519;SDS011;11936;50.820;4.336;2022-11-15T03:15:53;21.98;;;9.70;;
23519;SDS011;11936;50.820;4.336;2022-11-15T03:18:35;12.95;;;9.88;;
23519;SDS011;11936;50.820;4.336;2022-11-15T03:21:04;16.35;;;9.70;;
23519;SDS011;11936;50.820;4.336;2022-11-15T03:23:32;13.30;;;9.55;;
23519;SDS011;11936;50.820;4.336;2022-11-15T03:26:00;13.18;;;8.82;;
23519;SDS011;11936;50.820;4.336;2022-11-15T03:28:49;16.30;;;9.18;;
23519;SDS011;11936;50.820;4.336;2022-11-15T03:31:23;13.25;;;7.88;;
23519;SDS011;11936;50.820;4.336;2022-11-15T03:36:44;14.85;;;7.60;;
23519;SDS011;11936;50.820;4.336;2022-11-15T03:39:10;12.80;;;7.00;;
23519;SDS011;11936;50.820;4.336;2022-11-15T03:45:27;13.73;;;6.93;;
23519;SDS011;11936;50.820;4.336;2022-11-15T03:50:25;13.07;;;7.18;;
23519;SDS011;11936;50.820;4.336;2022-11-15T03:52:51;13.27;;;8.27;;
23519;SDS011;11936;50.820;4.336;2022-11-15T03:55:20;17.70;;;6.65;;
23519;SDS011;11936;50.820;4.336;2022-11-15T03:57:48;8.52;;;6.30;;
23519;SDS011;11936;50.820;4.336;2022-11-15T04:00:16;11.50;;;6.65;;
23519;SDS011;11936;50.820;4.336;2022-11-15T04:02:42;8.85;;;6.40;;
23519;SDS011;11936;50.820;4.336;2022-11-15T04:05:08;8.82;;;6.68;;
23519;SDS011;11936;50.820;4.336;2022-11-15T04:07:33;9.40;;;6.80;;
23519;SDS011;11936;50.820;4.336;2022-11-15T04:09:59;10.10;;;6.07;;
23519;SDS011;11936;50.820;4.336;2022-11-15T04:12:37;8.95;;;6.15;;
23519;SDS011;11936;50.820;4.336;2022-11-15T04:17:34;8.30;;;6.20;;
23519;SDS011;11936;50.820;4.336;2022-11-15T04:20:00;12.63;;;6.70;;
23519;SDS011;11936;50.820;4.336;2022-11-15T04:22:45;8.73;;;5.68;;
23519;SDS011;11936;50.820;4.336;2022-11-15T04:25:30;9.60;;;5.60;;
23519;SDS011;11936;50.820;4.336;2022-11-15T04:27:55;7.63;;;5.30;;
23519;SDS011;11936;50.820;4.336;2022-11-15T04:30:21;8.55;;;6.13;;
23519;SDS011;11936;50.820;4.336;2022-11-15T04:32:46;10.10;;;6.07;;
23519;SDS011;11936;50.820;4.336;2022-11-15T04:35:12;8.48;;;5.05;;
23519;SDS011;11936;50.820;4.336;2022-11-15T04:37:37;11.07;;;6.20;;
23519;SDS011;11936;50.820;4.336;2022-11-15T04:40:03;13.60;;;5.93;;
23519;SDS011;11936;50.820;4.336;2022-11-15T04:42:29;11.05;;;6.00;;
23519;SDS011;11936;50.820;4.336;2022-11-15T04:44:54;13.95;;;5.82;;
23519;SDS011;11936;50.820;4.336;2022-11-15T04:47:20;14.18;;;6.25;;
23519;SDS011;11936;50.820;4.336;2022-11-15T04:49:46;8.80;;;5.00;;
23519;SDS011;11936;50.820;4.336;2022-11-15T04:52:12;12.27;;;6.28;;
23519;SDS011;11936;50.820;4.336;2022-11-15T04:54:37;9.02;;;5.53;;
23519;SDS011;11936;50.820;4.336;2022-11-15T04:57:03;9.00;;;5.43;;
23519;SDS011;11936;50.820;4.336;2022-11-15T04:59:28;16.80;;;5.47;;
23519;SDS011;11936;50.820;4.336;2022-11-15T05:01:54;12.43;;;4.95;;
23519;SDS011;11936;50.820;4.336;2022-11-15T05:04:19;6.70;;;4.78;;
23519;SDS011;11936;50.820;4.336;2022-11-15T05:06:46;10.98;;;5.63;;
23519;SDS011;11936;50.820;4.336;2022-11-15T05:09:12;11.57;;;4.70;;
23519;SDS011;11936;50.820;4.336;2022-11-15T05:11:38;5.35;;;4.07;;
23519;SDS011;11936;50.820;4.336;2022-11-15T05:14:04;11.13;;;5.40;;
23519;SDS011;11936;50.820;4.336;2022-11-15T05:16:30;13.20;;;5.93;;
23519;SDS011;11936;50.820;4.336;2022-11-15T05:18:55;9.77;;;4.03;;
23519;SDS011;11936;50.820;4.336;2022-11-15T05:21:21;7.85;;;4.35;;
23519;SDS011;11936;50.820;4.336;2022-11-15T05:23:47;9.45;;;4.30;;
23519;SDS011;11936;50.820;4.336;2022-11-15T05:26:12;6.78;;;3.60;;
23519;SDS011;11936;50.820;4.336;2022-11-15T05:28:41;8.63;;;3.85;;
23519;SDS011;11936;50.820;4.336;2022-11-15T05:31:08;10.05;;;4.35;;
23519;SDS011;11936;50.820;4.336;2022-11-15T05:33:39;9.55;;;4.00;;
23519;SDS011;11936;50.820;4.336;2022-11-15T05:38:42;8.10;;;3.42;;
23519;SDS011;11936;50.820;4.336;2022-11-15T05:41:07;6.57;;;3.22;;
23519;SDS011;11936;50.820;4.336;2022-11-15T05:43:34;7.70;;;3.83;;
23519;SDS011;11936;50.820;4.336;2022-11-15T05:46:03;10.50;;;3.60;;
23519;SDS011;11936;50.820;4.336;2022-11-15T05:48:30;7.78;;;3.42;;
23519;SDS011;11936;50.820;4.336;2022-11-15T05:50:56;9.55;;;3.60;;
23519;SDS011;11936;50.820;4.336;2022-11-15T05:53:23;7.55;;;3.42;;
23519;SDS011;11936;50.820;4.336;2022-11-15T05:55:50;10.50;;;4.78;;
23519;SDS011;11936;50.820;4.336;2022-11-15T05:58:16;9.10;;;4.22;;
23519;SDS011;11936;50.820;4.336;2022-11-15T06:00:43;11.32;;;3.78;;
23519;SDS011;11936;50.820;4.336;2022-11-15T06:03:09;7.57;;;3.85;;
23519;SDS011;11936;50.820;4.336;2022-11-15T06:05:35;9.10;;;4.32;;
23519;SDS011;11936;50.820;4.336;2022-11-15T06:08:00;16.92;;;4.90;;
23519;SDS011;11936;50.820;4.336;2022-11-15T06:10:26;9.15;;;3.85;;
23519;SDS011;11936;50.820;4.336;2022-11-15T06:12:58;8.48;;;4.53;;
23519;SDS011;11936;50.820;4.336;2022-11-15T06:15:27;4.25;;;3.65;;
23519;SDS011;11936;50.820;4.336;2022-11-15T06:17:56;9.23;;;3.65;;
23519;SDS011;11936;50.820;4.336;2022-11-15T06:20:22;6.47;;;3.65;;
23519;SDS011;11936;50.820;4.336;2022-11-15T06:22:58;11.02;;;3.65;;
23519;SDS011;11936;50.820;4.336;2022-11-15T06:25:25;12.20;;;4.32;;
23519;SDS011;11936;50.820;4.336;2022-11-15T06:27:52;5.88;;;3.60;;
23519;SDS011;11936;50.820;4.336;2022-11-15T06:30:19;7.57;;;4.32;;
23519;SDS011;11936;50.820;4.336;2022-11-15T06:32:45;10.07;;;3.67;;
23519;SDS011;11936;50.820;4.336;2022-11-15T06:35:10;8.13;;;3.97;;
23519;SDS011;11936;50.820;4.336;2022-11-15T06:37:36;10.73;;;4.32;;
23519;SDS011;11936;50.820;4.336;2022-11-15T06:40:02;7.70;;;3.70;;
23519;SDS011;11936;50.820;4.336;2022-11-15T06:42:27;12.02;;;4.70;;
23519;SDS011;11936;50.820;4.336;2022-11-15T06:44:53;4.70;;;3.10;;
23519;SDS011;11936;50.820;4.336;2022-11-15T06:47:18;13.45;;;3.83;;
23519;SDS011;11936;50.820;4.336;2022-11-15T06:49:44;5.20;;;3.60;;
23519;SDS011;11936;50.820;4.336;2022-11-15T06:52:09;7.85;;;3.70;;
23519;SDS011;11936;50.820;4.336;2022-11-15T06:54:35;11.38;;;4.32;;
23519;SDS011;11936;50.820;4.336;2022-11-15T06:57:01;10.85;;;3.67;;
23519;SDS011;11936;50.820;4.336;2022-11-15T06:59:26;7.68;;;4.15;;
23519;SDS011;11936;50.820;4.336;2022-11-15T07:01:53;6.47;;;4.25;;
23519;SDS011;11936;50.820;4.336;2022-11-15T07:04:18;6.90;;;4.10;;
23519;SDS011;11936;50.820;4.336;2022-11-15T07:06:46;7.72;;;3.72;;
23519;SDS011;11936;50.820;4.336;2022-11-15T07:09:14;9.60;;;4.45;;
23519;SDS011;11936;50.820;4.336;2022-11-15T07:11:39;9.90;;;3.58;;
23519;SDS011;11936;50.820;4.336;2022-11-15T07:14:05;14.35;;;5.00;;
23519;SDS011;11936;50.820;4.336;2022-11-15T07:16:31;11.07;;;4.28;;
23519;SDS011;11936;50.820;4.336;2022-11-15T07:18:56;9.98;;;4.15;;
23519;SDS011;11936;50.820;4.336;2022-11-15T07:21:22;10.57;;;4.43;;
23519;SDS011;11936;50.820;4.336;2022-11-15T07:23:48;6.53;;;3.55;;
23519;SDS011;11936;50.820;4.336;2022-11-15T07:26:14;9.25;;;3.67;;
23519;SDS011;11936;50.820;4.336;2022-11-15T07:28:39;11.05;;;4.20;;
23519;SDS011;11936;50.820;4.336;2022-11-15T07:31:06;8.80;;;4.13;;
23519;SDS011;11936;50.820;4.336;2022-11-15T07:33:32;15.25;;;4.20;;
23519;SDS011;11936;50.820;4.336;2022-11-15T07:35:59;9.10;;;3.47;;
23519;SDS011;11936;50.820;4.336;2022-11-15T07:38:26;13.85;;;4.57;;
23519;SDS011;11936;50.820;4.336;2022-11-15T07:41:00;8.45;;;4.00;;
23519;SDS011;11936;50.820;4.336;2022-11-15T07:43:27;11.43;;;4.07;;
23519;SDS011;11936;50.820;4.336;2022-11-15T07:45:52;9.10;;;3.85;;
23519;SDS011;11936;50.820;4.336;2022-11-15T07:48:18;12.75;;;4.57;;
23519;SDS011;11936;50.820;4.336;2022-11-15T07:50:44;7.63;;;3.58;;
23519;SDS011;11936;50.820;4.336;2022-11-15T07:53:10;7.07;;;3.88;;
23519;SDS011;11936;50.820;4.336;2022-11-15T07:55:36;9.30;;;4.18;;
23519;SDS011;11936;50.820;4.336;2022-11-15T07:58:03;7.90;;;4.30;;
23519;SDS011;11936;50.820;4.336;2022-11-15T08:00:30;12.57;;;4.82;;
23519;SDS011;11936;50.820;4.336;2022-11-15T08:03:18;11.65;;;4.40;;
23519;SDS011;11936;50.820;4.336;2022-11-15T08:05:42;8.80;;;4.15;;
23519;SDS011;11936;50.820;4.336;2022-11-15T08:08:09;7.80;;;3.83;;
23519;SDS011;11936;50.820;4.336;2022-11-15T08:10:35;8.88;;;3.85;;
23519;SDS011;11936;50.820;4.336;2022-11-15T08:13:06;6.32;;;3.28;;
23519;SDS011;11936;50.820;4.336;2022-11-15T08:15:33;10.27;;;3.08;;
23519;SDS011;11936;50.820;4.336;2022-11-15T08:18:01;6.38;;;3.10;;
23519;SDS011;11936;50.820;4.336;2022-11-15T08:20:29;11.13;;;3.55;;
23519;SDS011;11936;50.820;4.336;2022-11-15T08:22:58;5.47;;;3.28;;
23519;SDS011;11936;50.820;4.336;2022-11-15T08:25:25;13.13;;;3.30;;
23519;SDS011;11936;50.820;4.336;2022-11-15T08:27:52;9.23;;;3.22;;
23519;SDS011;11936;50.820;4.336;2022-11-15T08:30:18;6.97;;;3.40;;
23519;SDS011;11936;50.820;4.336;2022-11-15T08:32:44;6.82;;;2.60;;
23519;SDS011;11936;50.820;4.336;2022-11-15T08:35:10;6.82;;;2.67;;
23519;SDS011;11936;50.820;4.336;2022-11-15T08:37:36;11.23;;;2.97;;
23519;SDS011;11936;50.820;4.336;2022-11-15T08:40:02;9.93;;;2.72;;
23519;SDS011;11936;50.820;4.336;2022-11-15T08:42:28;8.23;;;2.80;;
23519;SDS011;11936;50.820;4.336;2022-11-15T08:44:54;4.78;;;2.50;;
23519;SDS011;11936;50.820;4.336;2022-11-15T08:47:19;5.65;;;2.35;;
23519;SDS011;11936;50.820;4.336;2022-11-15T08:49:45;7.45;;;2.55;;
23519;SDS011;11936;50.820;4.336;2022-11-15T08:52:10;5.30;;;2.80;;
23519;SDS011;11936;50.820;4.336;2022-11-15T08:54:36;6.40;;;1.75;;
23519;SDS011;11936;50.820;4.336;2022-11-15T08:57:02;8.10;;;2.40;;
23519;SDS011;11936;50.820;4.336;2022-11-15T08:59:27;9.95;;;2.53;;
23519;SDS011;11936;50.820;4.336;2022-11-15T09:01:53;5.55;;;2.30;;
23519;SDS011;11936;50.820;4.336;2022-11-15T09:04:18;11.05;;;2.88;;
23519;SDS011;11936;50.820;4.336;2022-11-15T09:06:44;6.90;;;2.90;;
23519;SDS011;11936;50.820;4.336;2022-11-15T09:09:10;6.47;;;2.35;;
23519;SDS011;11936;50.820;4.336;2022-11-15T09:11:35;9.80;;;2.38;;
23519;SDS011;11936;50.820;4.336;2022-11-15T09:14:01;6.53;;;2.75;;
23519;SDS011;11936;50.820;4.336;2022-11-15T09:16:27;8.68;;;2.40;;
23519;SDS011;11936;50.820;4.336;2022-11-15T09:18:53;10.45;;;2.38;;
23519;SDS011;11936;50.820;4.336;2022-11-15T09:21:19;10.68;;;2.47;;
23519;SDS011;11936;50.820;4.336;2022-11-15T09:23:45;5.95;;;2.42;;
23519;SDS011;11936;50.820;4.336;2022-11-15T09:26:11;7.30;;;2.42;;
23519;SDS011;11936;50.820;4.336;2022-11-15T09:28:36;7.03;;;2.60;;
23519;SDS011;11936;50.820;4.336;2022-11-15T09:31:04;9.25;;;2.08;;
23519;SDS011;11936;50.820;4.336;2022-11-15T09:33:30;10.05;;;2.20;;
23519;SDS011;11936;50.820;4.336;2022-11-15T09:36:00;8.43;;;2.40;;
23519;SDS011;11936;50.820;4.336;2022-11-15T09:38:27;12.57;;;3.45;;
23519;SDS011;11936;50.820;4.336;2022-11-15T09:40:53;9.65;;;2.63;;
23519;SDS011;11936;50.820;4.336;2022-11-15T09:46:12;6.05;;;2.60;;
23519;SDS011;11936;50.820;4.336;2022-11-15T09:49:00;5.82;;;2.35;;
23519;SDS011;11936;50.820;4.336;2022-11-15T09:53:59;9.65;;;2.80;;
23519;SDS011;11936;50.820;4.336;2022-11-15T09:56:36;7.63;;;1.70;;
23519;SDS011;11936;50.820;4.336;2022-11-15T10:04:22;7.47;;;1.90;;
23519;SDS011;11936;50.820;4.336;2022-11-15T10:07:04;11.82;;;2.63;;
23519;SDS011;11936;50.820;4.336;2022-11-15T10:09:47;12.57;;;2.33;;
23519;SDS011;11936;50.820;4.336;2022-11-15T10:12:34;8.88;;;2.08;;
23519;SDS011;11936;50.820;4.336;2022-11-15T10:15:02;12.73;;;2.47;;
23519;SDS011;11936;50.820;4.336;2022-11-15T10:20:20;10.40;;;2.40;;
23519;SDS011;11936;50.820;4.336;2022-11-15T10:25:30;12.32;;;2.63;;
23519;SDS011;11936;50.820;4.336;2022-11-15T10:27:59;14.52;;;2.22;;
23519;SDS011;11936;50.820;4.336;2022-11-15T10:30:45;11.27;;;2.30;;
23519;SDS011;11936;50.820;4.336;2022-11-15T10:33:16;8.07;;;2.00;;
23519;SDS011;11936;50.820;4.336;2022-11-15T10:35:47;13.45;;;2.25;;
23519;SDS011;11936;50.820;4.336;2022-11-15T10:38:13;8.02;;;2.03;;
23519;SDS011;11936;50.820;4.336;2022-11-15T10:40:39;10.02;;;2.33;;
23519;SDS011;11936;50.820;4.336;2022-11-15T10:45:34;7.95;;;1.88;;
23519;SDS011;11936;50.820;4.336;2022-11-15T10:50:44;10.03;;;2.30;;
23519;SDS011;11936;50.820;4.336;2022-11-15T10:55:49;9.85;;;2.30;;
23519;SDS011;11936;50.820;4.336;2022-11-15T11:00:49;6.43;;;1.88;;
23519;SDS011;11936;50.820;4.336;2022-11-15T11:06:04;12.88;;;3.30;;
23519;SDS011;11936;50.820;4.336;2022-11-15T11:08:30;11.48;;;2.78;;
23519;SDS011;11936;50.820;4.336;2022-11-15T11:10:57;7.28;;;2.33;;
23519;SDS011;11936;50.820;4.336;2022-11-15T11:13:25;8.80;;;2.08;;
23519;SDS011;11936;50.820;4.336;2022-11-15T11:18:39;7.97;;;2.45;;
23519;SDS011;11936;50.820;4.336;2022-11-15T11:21:09;12.82;;;2.55;;
23519;SDS011;11936;50.820;4.336;2022-11-15T11:26:25;9.07;;;2.58;;
23519;SDS011;11936;50.820;4.336;2022-11-15T11:39:39;7.32;;;1.77;;
23519;SDS011;11936;50.820;4.336;2022-11-15T11:42:31;12.15;;;1.77;;
23519;SDS011;11936;50.820;4.336;2022-11-15T11:50:33;9.32;;;1.67;;
23519;SDS011;11936;50.820;4.336;2022-11-15T11:55:37;4.35;;;1.58;;
23519;SDS011;11936;50.820;4.336;2022-11-15T11:58:18;7.90;;;1.75;;
23519;SDS011;11936;50.820;4.336;2022-11-15T12:02:02;6.82;;;2.15;;
23519;SDS011;11936;50.820;4.336;2022-11-15T12:07:03;6.40;;;1.80;;
23519;SDS011;11936;50.820;4.336;2022-11-15T12:12:21;10.07;;;2.60;;
23519;SDS011;11936;50.820;4.336;2022-11-15T12:15:01;6.93;;;2.30;;
23519;SDS011;11936;50.820;4.336;2022-11-15T12:17:34;4.15;;;2.25;;
23519;SDS011;11936;50.820;4.336;2022-11-15T12:20:03;7.38;;;2.97;;
23519;SDS011;11936;50.820;4.336;2022-11-15T12:22:39;11.32;;;2.42;;
23519;SDS011;11936;50.820;4.336;2022-11-15T12:27:49;9.60;;;3.17;;
23519;SDS011;11936;50.820;4.336;2022-11-15T12:30:22;7.28;;;3.92;;
23519;SDS011;11936;50.820;4.336;2022-11-15T12:32:49;18.85;;;3.55;;
23519;SDS011;11936;50.820;4.336;2022-11-15T12:35:32;5.80;;;2.85;;
23519;SDS011;11936;50.820;4.336;2022-11-15T12:38:10;11.23;;;3.08;;
23519;SDS011;11936;50.820;4.336;2022-11-15T12:40:38;7.43;;;2.65;;
23519;SDS011;11936;50.820;4.336;2022-11-15T12:46:10;6.35;;;2.13;;
23519;SDS011;11936;50.820;4.336;2022-11-15T12:51:03;8.82;;;2.75;;
23519;SDS011;11936;50.820;4.336;2022-11-15T12:53:30;7.68;;;2.45;;
23519;SDS011;11936;50.820;4.336;2022-11-15T13:07:03;5.57;;;2.05;;
23519;SDS011;11936;50.820;4.336;2022-11-15T13:12:11;10.40;;;1.65;;
23519;SDS011;11936;50.820;4.336;2022-11-15T13:17:46;6.15;;;2.05;;
23519;SDS011;11936;50.820;4.336;2022-11-15T13:20:20;11.93;;;1.70;;
23519;SDS011;11936;50.820;4.336;2022-11-15T13:23:09;11.23;;;1.60;;
23519;SDS011;11936;50.820;4.336;2022-11-15T13:28:30;11.18;;;1.90;;
23519;SDS011;11936;50.820;4.336;2022-11-15T13:31:00;7.78;;;2.13;;
23519;SDS011;11936;50.820;4.336;2022-11-15T13:33:38;5.47;;;1.42;;
23519;SDS011;11936;50.820;4.336;2022-11-15T13:36:09;4.45;;;1.88;;
23519;SDS011;11936;50.820;4.336;2022-11-15T13:38:40;6.75;;;2.25;;
23519;SDS011;11936;50.820;4.336;2022-11-15T13:43:41;4.90;;;1.42;;
23519;SDS011;11936;50.820;4.336;2022-11-15T13:51:05;3.58;;;1.73;;
23519;SDS011;11936;50.820;4.336;2022-11-15T13:53:41;4.85;;;2.20;;
23519;SDS011;11936;50.820;4.336;2022-11-15T13:56:11;2.60;;;1.15;;
23519;SDS011;11936;50.820;4.336;2022-11-15T13:58:38;12.05;;;1.95;;
23519;SDS011;11936;50.820;4.336;2022-11-15T14:01:04;3.22;;;1.25;;
23519;SDS011;11936;50.820;4.336;2022-11-15T14:03:31;3.08;;;1.65;;
23519;SDS011;11936;50.820;4.336;2022-11-15T14:06:15;5.40;;;2.38;;
23519;SDS011;11936;50.820;4.336;2022-11-15T14:09:04;3.53;;;1.35;;
23519;SDS011;11936;50.820;4.336;2022-11-15T14:11:34;2.83;;;1.33;;
23519;SDS011;11936;50.820;4.336;2022-11-15T14:16:39;8.32;;;2.08;;
23519;SDS011;11936;50.820;4.336;2022-11-15T14:19:13;2.97;;;1.80;;
23519;SDS011;11936;50.820;4.336;2022-11-15T14:25:07;7.82;;;2.33;;
23519;SDS011;11936;50.820;4.336;2022-11-15T14:30:55;2.65;;;2.00;;
23519;SDS011;11936;50.820;4.336;2022-11-15T14:33:32;4.05;;;2.40;;
23519;SDS011;11936;50.820;4.336;2022-11-15T14:38:39;2.28;;;1.95;;
23519;SDS011;11936;50.820;4.336;2022-11-15T14:41:05;6.65;;;1.77;;
23519;SDS011;11936;50.820;4.336;2022-11-15T14:43:50;4.70;;;2.10;;
23519;SDS011;11936;50.820;4.336;2022-11-15T14:46:17;2.78;;;1.70;;
23519;SDS011;11936;50.820;4.336;2022-11-15T14:48:42;4.22;;;1.70;;
23519;SDS011;11936;50.820;4.336;2022-11-15T14:51:16;4.00;;;1.90;;
23519;SDS011;11936;50.820;4.336;2022-11-15T14:53:43;4.65;;;1.60;;
23519;SDS011;11936;50.820;4.336;2022-11-15T14:56:09;2.22;;;1.65;;
23519;SDS011;11936;50.820;4.336;2022-11-15T14:58:35;6.28;;;2.30;;
23519;SDS011;11936;50.820;4.336;2022-11-15T15:01:02;3.35;;;1.85;;
23519;SDS011;11936;50.820;4.336;2022-11-15T15:03:36;7.15;;;2.22;;
23519;SDS011;11936;50.820;4.336;2022-11-15T15:06:01;8.75;;;3.28;;
23519;SDS011;11936;50.820;4.336;2022-11-15T15:08:27;4.55;;;2.70;;
23519;SDS011;11936;50.820;4.336;2022-11-15T15:10:52;7.47;;;2.30;;
23519;SDS011;11936;50.820;4.336;2022-11-15T15:13:19;7.60;;;2.83;;
23519;SDS011;11936;50.820;4.336;2022-11-15T15:15:47;3.53;;;2.85;;
23519;SDS011;11936;50.820;4.336;2022-11-15T15:18:13;5.30;;;3.00;;
23519;SDS011;11936;50.820;4.336;2022-11-15T15:20:40;4.47;;;3.08;;
23519;SDS011;11936;50.820;4.336;2022-11-15T15:23:13;13.75;;;3.40;;
23519;SDS011;11936;50.820;4.336;2022-11-15T15:25:43;8.18;;;3.00;;
23519;SDS011;11936;50.820;4.336;2022-11-15T15:28:11;5.20;;;3.10;;
23519;SDS011;11936;50.820;4.336;2022-11-15T15:30:37;4.63;;;2.65;;
23519;SDS011;11936;50.820;4.336;2022-11-15T15:33:03;6.78;;;3.10;;
23519;SDS011;11936;50.820;4.336;2022-11-15T15:35:29;5.47;;;2.85;;
23519;SDS011;11936;50.820;4.336;2022-11-15T15:37:57;8.88;;;4.00;;
23519;SDS011;11936;50.820;4.336;2022-11-15T15:40:23;7.78;;;2.85;;
23519;SDS011;11936;50.820;4.336;2022-11-15T15:42:50;6.47;;;3.00;;
23519;SDS011;11936;50.820;4.336;2022-11-15T15:45:16;7.53;;;3.58;;
23519;SDS011;11936;50.820;4.336;2022-11-15T15:47:43;11.30;;;4.50;;
23519;SDS011;11936;50.820;4.336;2022-11-15T15:50:23;5.25;;;3.20;;
23519;SDS011;11936;50.820;4.336;2022-11-15T15:52:51;5.82;;;3.42;;
23519;SDS011;11936;50.820;4.336;2022-11-15T15:55:18;6.15;;;3.67;;
23519;SDS011;11936;50.820;4.336;2022-11-15T15:57:44;6.93;;;3.55;;
23519;SDS011;11936;50.820;4.336;2022-11-15T16:00:10;5.15;;;3.10;;
23519;SDS011;11936;50.820;4.336;2022-11-15T16:02:36;5.82;;;3.10;;
23519;SDS011;11936;50.820;4.336;2022-11-15T16:05:01;7.35;;;3.03;;
23519;SDS011;11936;50.820;4.336;2022-11-15T16:07:27;3.92;;;3.20;;
23519;SDS011;11936;50.820;4.336;2022-11-15T16:09:54;6.35;;;3.17;;
23519;SDS011;11936;50.820;4.336;2022-11-15T16:12:27;4.93;;;3.50;;
23519;SDS011;11936;50.820;4.336;2022-11-15T16:14:53;8.75;;;3.90;;
23519;SDS011;11936;50.820;4.336;2022-11-15T16:17:20;4.75;;;3.10;;
23519;SDS011;11936;50.820;4.336;2022-11-15T16:19:47;10.32;;;5.82;;
23519;SDS011;11936;50.820;4.336;2022-11-15T16:22:12;9.88;;;5.50;;
23519;SDS011;11936;50.820;4.336;2022-11-15T16:24:38;12.60;;;8.27;;
23519;SDS011;11936;50.820;4.336;2022-11-15T16:27:03;11.52;;;6.93;;
23519;SDS011;11936;50.820;4.336;2022-11-15T16:29:29;18.77;;;12.73;;
23519;SDS011;11936;50.820;4.336;2022-11-15T16:31:55;11.35;;;6.88;;
23519;SDS011;11936;50.820;4.336;2022-11-15T16:34:21;5.50;;;4.38;;
23519;SDS011;11936;50.820;4.336;2022-11-15T16:36:46;13.05;;;9.45;;
23519;SDS011;11936;50.820;4.336;2022-11-15T16:39:12;8.55;;;6.25;;
23519;SDS011;11936;50.820;4.336;2022-11-15T16:41:39;7.68;;;5.80;;
23519;SDS011;11936;50.820;4.336;2022-11-15T16:44:07;7.60;;;5.63;;
23519;SDS011;11936;50.820;4.336;2022-11-15T16:46:32;7.20;;;5.70;;
23519;SDS011;11936;50.820;4.336;2022-11-15T16:48:58;9.95;;;5.03;;
23519;SDS011;11936;50.820;4.336;2022-11-15T16:51:23;5.50;;;4.13;;
23519;SDS011;11936;50.820;4.336;2022-11-15T16:53:49;10.45;;;5.15;;
23519;SDS011;11936;50.820;4.336;2022-11-15T16:58:45;15.60;;;10.02;;
23519;SDS011;11936;50.820;4.336;2022-11-15T17:01:17;13.05;;;9.13;;
23519;SDS011;11936;50.820;4.336;2022-11-15T17:03:46;22.38;;;15.88;;
23519;SDS011;11936;50.820;4.336;2022-11-15T17:06:12;23.83;;;15.32;;
23519;SDS011;11936;50.820;4.336;2022-11-15T17:08:38;19.02;;;12.05;;
23519;SDS011;11936;50.820;4.336;2022-11-15T17:11:04;10.27;;;5.85;;
23519;SDS011;11936;50.820;4.336;2022-11-15T17:13:31;11.52;;;5.47;;
23519;SDS011;11936;50.820;4.336;2022-11-15T17:16:08;8.38;;;5.57;;
23519;SDS011;11936;50.820;4.336;2022-11-15T17:18:35;7.40;;;4.97;;